Time;durP1;ratioP1;P1;durP2;ratioP2;P2;SDS_P1;SDS_P2;PMS_P1;PMS_P2;Temp;Humidity;BMP_temperature;BMP_pressure;BME280_temperature;BME280_humidity;BME280_pressure;Samples;Min_cycle;Max_cycle;Signal;HPM_P1;HPM_P2
2024/03/06 00:01:55;;;;;;;24.67;14.43;;;4.20;99.90;;;-148.53;100.00;63986.66;5030943;28;20049;-84
2024/03/06 00:04:21;;;;;;;20.90;12.98;;;4.20;99.90;;;-148.53;100.00;63986.66;5034348;28;20042;-84
2024/03/06 00:06:47;;;;;;;21.40;12.45;;;4.20;99.90;;;-148.53;100.00;63986.66;5031093;28;20064;-85
2024/03/06 00:09:12;;;;;;;21.27;12.52;;;4.20;99.90;;;-148.53;100.00;63986.66;5022649;28;20512;-85
2024/03/06 00:11:38;;;;;;;22.08;13.00;;;4.20;99.90;;;-148.53;100.00;63986.66;5022768;28;20088;-87
2024/03/06 00:14:07;;;;;;;20.95;12.90;;;4.20;99.90;;;-148.53;100.00;63986.66;5015247;28;20049;-86
2024/03/06 00:16:33;;;;;;;23.20;13.57;;;4.20;99.90;;;-148.53;100.00;63986.66;5027163;28;20464;-85
2024/03/06 00:18:59;;;;;;;24.67;13.50;;;4.30;99.90;;;-148.53;100.00;63986.66;5029616;28;20099;-86
2024/03/06 00:21:25;;;;;;;21.40;13.35;;;4.30;99.90;;;-148.53;100.00;63986.66;5032700;28;20045;-85
2024/03/06 00:23:51;;;;;;;23.52;13.82;;;4.20;99.90;;;-148.53;100.00;63986.66;5036158;28;20041;-86
2024/03/06 00:26:16;;;;;;;25.85;14.43;;;4.20;99.90;;;-148.53;100.00;63986.66;5055195;28;20041;-84
2024/03/06 00:28:42;;;;;;;25.52;13.18;;;4.20;99.90;;;-148.53;100.00;63986.66;5064297;28;20042;-85
2024/03/06 00:31:08;;;;;;;23.13;12.70;;;4.20;99.90;;;-148.53;100.00;63986.66;5040717;28;20044;-84
2024/03/06 00:33:34;;;;;;;23.60;13.43;;;4.20;99.90;;;-148.53;100.00;63986.66;5028155;28;20034;-86
2024/03/06 00:35:59;;;;;;;23.90;14.10;;;4.20;99.90;;;-148.53;100.00;63986.66;5025585;28;20047;-85
2024/03/06 00:38:25;;;;;;;24.13;14.02;;;4.20;99.90;;;-148.53;100.00;63986.66;5025632;28;20086;-86
2024/03/06 00:40:51;;;;;;;23.98;13.75;;;4.20;99.90;;;-148.53;100.00;63986.66;5041907;28;20490;-86
2024/03/06 00:43:17;;;;;;;24.60;13.35;;;4.20;99.90;;;-148.53;100.00;63986.66;5034281;28;20041;-85
2024/03/06 00:45:42;;;;;;;24.48;13.70;;;4.20;99.90;;;-148.53;100.00;63986.66;5025337;28;20052;-84
2024/03/06 00:48:08;;;;;;;23.15;13.25;;;4.20;99.90;;;-148.53;100.00;63986.66;5028144;28;20044;-85
2024/03/06 00:50:34;;;;;;;21.92;13.50;;;4.20;99.90;;;-148.53;100.00;63986.66;5022145;28;20045;-85
2024/03/06 00:52:59;;;;;;;21.33;13.02;;;4.30;99.90;;;-148.53;100.00;63986.66;5029452;28;20033;-86
2024/03/06 00:55:25;;;;;;;23.33;13.95;;;4.30;99.90;;;-148.53;100.00;63986.66;5025561;28;20045;-85
2024/03/06 00:57:51;;;;;;;20.17;12.80;;;4.30;99.90;;;-148.53;100.00;63986.66;5038806;28;20032;-86
2024/03/06 01:00:17;;;;;;;24.15;14.20;;;4.30;99.90;;;-148.53;100.00;63986.66;5035251;28;20038;-86
2024/03/06 01:02:43;;;;;;;22.77;13.50;;;4.30;99.90;;;-148.53;100.00;63986.66;5032685;28;20072;-85
2024/03/06 01:05:09;;;;;;;26.85;14.35;;;4.30;99.90;;;-148.53;100.00;63986.66;5018566;28;20066;-85
2024/03/06 01:07:37;;;;;;;25.17;13.77;;;4.30;99.90;;;-148.53;100.00;63986.66;5026217;28;20132;-85
2024/03/06 01:10:06;;;;;;;26.52;13.35;;;4.30;99.90;;;-148.53;100.00;63986.66;5017715;28;20030;-85
2024/03/06 01:12:33;;;;;;;25.45;14.05;;;4.30;99.90;;;-148.53;100.00;63986.66;5031522;28;20130;-85
2024/03/06 01:14:58;;;;;;;22.25;13.63;;;4.30;99.90;;;-148.53;100.00;63986.66;5024168;28;20570;-86
2024/03/06 01:17:24;;;;;;;25.13;14.38;;;4.30;99.90;;;-148.53;100.00;63986.66;5029433;28;20049;-84
2024/03/06 01:19:50;;;;;;;27.15;14.70;;;4.30;99.90;;;-148.53;100.00;63986.66;5023672;28;20037;-85
2024/03/06 01:22:16;;;;;;;24.38;13.85;;;4.30;99.90;;;-148.53;100.00;63986.66;5033923;28;20046;-86
2024/03/06 01:24:42;;;;;;;26.98;14.18;;;4.30;99.90;;;-148.53;100.00;63986.66;5033982;28;20365;-85
2024/03/06 01:27:08;;;;;;;23.23;13.68;;;4.30;99.90;;;-148.53;100.00;63986.66;5023759;28;20076;-85
2024/03/06 01:29:34;;;;;;;24.77;14.50;;;4.30;99.90;;;-148.53;100.00;63986.66;5030030;28;20448;-87
2024/03/06 01:31:59;;;;;;;25.55;14.93;;;4.30;99.90;;;-148.53;100.00;63986.66;5027822;28;20039;-86
2024/03/06 01:34:25;;;;;;;26.83;15.00;;;4.30;99.90;;;-148.53;100.00;63986.66;5026988;28;20041;-85
2024/03/06 01:36:52;;;;;;;23.48;14.38;;;4.30;99.90;;;-148.53;100.00;63986.66;5019901;28;20437;-88
2024/03/06 01:39:18;;;;;;;28.25;14.63;;;4.40;99.90;;;-148.53;100.00;63986.66;5021522;28;20104;-87
2024/03/06 01:41:51;;;;;;;24.30;14.20;;;4.30;99.90;;;-148.53;100.00;63986.66;5029086;28;20042;-87
2024/03/06 01:44:18;;;;;;;26.08;15.15;;;4.30;99.90;;;-148.53;100.00;63986.66;5058615;28;20073;-86
2024/03/06 01:46:46;;;;;;;25.05;14.20;;;4.30;99.90;;;-148.53;100.00;63986.66;5028429;28;20120;-87
2024/03/06 01:49:14;;;;;;;;;;;4.30;99.90;;;-148.53;100.00;63986.66;5032649;28;20030;-89
2024/03/06 01:51:49;;;;;;;25.50;14.15;;;4.30;99.90;;;-148.53;100.00;63986.66;5042388;28;19932;-88
2024/03/06 01:54:16;;;;;;;22.65;14.13;;;4.30;99.90;;;-148.53;100.00;63986.66;5030425;28;20524;-87
2024/03/06 01:56:47;;;;;;;23.02;14.18;;;4.30;99.90;;;-148.53;100.00;63986.66;5020176;28;20496;-87
2024/03/06 01:59:18;;;;;;;23.92;14.57;;;4.20;99.90;;;-148.53;100.00;63986.66;5023404;28;20080;-87
2024/03/06 02:01:45;;;;;;;23.20;14.23;;;4.20;99.90;;;-148.53;100.00;63986.66;5028727;28;20041;-88
2024/03/06 02:04:13;;;;;;;25.75;14.77;;;4.20;99.90;;;-148.53;100.00;63986.66;5023281;28;20123;-86
2024/03/06 02:06:39;;;;;;;23.60;14.15;;;4.30;99.90;;;-148.53;100.00;63986.66;5023709;28;20488;-88
2024/03/06 02:09:06;;;;;;;24.90;15.20;;;4.30;99.90;;;-148.53;100.00;63986.66;5028639;28;20039;-87
2024/03/06 02:11:33;;;;;;;22.88;14.10;;;4.30;99.90;;;-148.53;100.00;63986.66;5033008;28;20041;-86
2024/03/06 02:13:59;;;;;;;23.33;14.57;;;4.20;99.90;;;-148.53;100.00;63986.66;5034307;28;20357;-85
2024/03/06 02:16:26;;;;;;;24.55;14.15;;;4.30;99.90;;;-148.53;100.00;63986.66;5031636;28;20041;-86
2024/03/06 02:18:59;;;;;;;23.00;14.32;;;4.20;99.90;;;-148.53;100.00;63986.66;5029740;28;20106;-86
2024/03/06 02:21:25;;;;;;;28.55;14.75;;;4.20;99.90;;;-148.53;100.00;63986.66;5033716;28;20050;-86
2024/03/06 02:23:52;;;;;;;24.55;13.73;;;4.20;99.90;;;-148.53;100.00;63986.66;5021240;28;20057;-87
2024/03/06 02:26:18;;;;;;;23.77;13.98;;;4.20;99.90;;;-148.53;100.00;63986.66;5030870;28;20044;-87
2024/03/06 02:28:52;;;;;;;25.10;14.10;;;4.20;99.90;;;-148.53;100.00;63986.66;5024341;28;20111;-87
2024/03/06 02:31:19;;;;;;;21.33;14.02;;;4.20;99.90;;;-148.53;100.00;63986.66;5033364;28;20710;-86
2024/03/06 02:33:49;;;;;;;23.50;14.00;;;4.20;99.90;;;-148.53;100.00;63986.66;5028724;28;20112;-87
2024/03/06 02:36:18;;;;;;;25.55;14.52;;;4.10;99.90;;;-148.53;100.00;63986.66;5024894;28;20084;-87
2024/03/06 02:38:45;;;;;;;27.27;14.68;;;4.20;99.90;;;-148.53;100.00;63986.66;5028165;28;20033;-87
2024/03/06 02:41:13;;;;;;;26.38;13.98;;;4.10;99.90;;;-148.53;100.00;63986.66;5026078;28;20100;-87
2024/03/06 02:43:39;;;;;;;24.27;14.50;;;4.10;99.90;;;-148.53;100.00;63986.66;5032370;28;20049;-87
2024/03/06 02:46:05;;;;;;;24.83;14.05;;;4.10;99.90;;;-148.53;100.00;63986.66;5042995;28;20034;-87
2024/03/06 02:48:31;;;;;;;25.02;13.27;;;4.10;99.90;;;-148.53;100.00;63986.66;5025788;28;20116;-86
2024/03/06 02:50:57;;;;;;;23.20;13.65;;;4.10;99.90;;;-148.53;100.00;63986.66;5016761;28;20037;-87
2024/03/06 02:53:25;;;;;;;25.60;14.77;;;4.10;99.90;;;-148.53;100.00;63986.66;5023587;28;20125;-86
2024/03/06 02:55:51;;;;;;;21.02;13.30;;;4.10;99.90;;;-148.53;100.00;63986.66;5036325;28;20041;-86
2024/03/06 02:58:16;;;;;;;23.98;14.30;;;4.10;99.90;;;-148.53;100.00;63986.66;5022788;28;20108;-86
2024/03/06 03:00:43;;;;;;;24.63;13.75;;;4.20;99.90;;;-148.53;100.00;63986.66;5031627;28;20038;-86
2024/03/06 03:03:11;;;;;;;23.40;13.88;;;4.10;99.90;;;-148.53;100.00;63986.66;5029309;28;20428;-86
2024/03/06 03:05:38;;;;;;;23.65;14.13;;;4.10;99.90;;;-148.53;100.00;63986.66;5025448;28;20050;-86
2024/03/06 03:08:05;;;;;;;22.23;13.95;;;4.00;99.90;;;-148.53;100.00;63986.66;5025319;28;20037;-86
2024/03/06 03:10:31;;;;;;;26.93;14.50;;;4.10;99.90;;;-148.53;100.00;63986.66;5027524;28;20477;-85
2024/03/06 03:12:56;;;;;;;25.55;13.85;;;4.00;99.90;;;-148.53;100.00;63986.66;5026668;28;20303;-86
2024/03/06 03:15:22;;;;;;;24.92;13.80;;;4.10;99.90;;;-148.53;100.00;63986.66;5022254;28;20044;-86
2024/03/06 03:17:48;;;;;;;26.98;14.57;;;4.10;99.90;;;-148.53;100.00;63986.66;5019134;28;20037;-85
2024/03/06 03:20:13;;;;;;;25.30;14.73;;;4.10;99.90;;;-148.53;100.00;63986.66;5022094;28;20049;-85
2024/03/06 03:22:43;;;;;;;23.65;13.82;;;4.10;99.90;;;-148.53;100.00;63986.66;5027369;28;20041;-85
2024/03/06 03:25:13;;;;;;;22.58;14.02;;;4.10;99.90;;;-148.53;100.00;63986.66;5031491;28;20044;-85
2024/03/06 03:27:40;;;;;;;22.92;14.30;;;4.10;99.90;;;-148.53;100.00;63986.66;5029371;28;20374;-86
2024/03/06 03:30:13;;;;;;;25.30;14.17;;;4.10;99.90;;;-148.53;100.00;63986.66;5045082;28;20033;-85
2024/03/06 03:32:39;;;;;;;26.35;14.88;;;4.10;99.90;;;-148.53;100.00;63986.66;5029650;28;20302;-85
2024/03/06 03:35:07;;;;;;;25.63;15.35;;;4.10;99.90;;;-148.53;100.00;63986.66;5017022;28;20676;-86
2024/03/06 03:37:33;;;;;;;;;;;4.10;99.90;;;-148.53;100.00;63986.66;5021846;28;20042;-84
2024/03/06 03:39:59;;;;;;;25.33;13.02;;;4.10;99.90;;;-148.53;100.00;63986.66;5025339;28;19970;-85
2024/03/06 03:42:25;;;;;;;27.95;14.25;;;4.10;99.90;;;-148.53;100.00;63986.66;5030265;28;20046;-86
2024/03/06 03:44:50;;;;;;;26.10;14.32;;;4.10;99.90;;;-148.53;100.00;63986.66;5018680;28;20030;-86
2024/03/06 03:47:16;;;;;;;23.13;14.10;;;4.10;99.90;;;-148.53;100.00;63986.66;5018296;28;20046;-85
2024/03/06 03:49:42;;;;;;;23.48;13.73;;;4.10;99.90;;;-148.53;100.00;63986.66;5021917;28;20065;-85
2024/03/06 03:52:08;;;;;;;24.77;14.55;;;4.10;99.90;;;-148.53;100.00;63986.66;5021774;28;20087;-85
2024/03/06 03:54:35;;;;;;;24.02;13.98;;;4.10;99.90;;;-148.53;100.00;63986.66;5016321;28;20057;-83
2024/03/06 03:57:01;;;;;;;24.98;14.57;;;4.10;99.90;;;-148.53;100.00;63986.66;5014079;28;20390;-84
2024/03/06 03:59:27;;;;;;;26.80;14.70;;;4.10;99.90;;;-148.53;100.00;63986.66;5027924;28;20040;-85
2024/03/06 04:01:52;;;;;;;26.75;15.00;;;4.10;99.90;;;-148.53;100.00;63986.66;5016587;28;20037;-85
2024/03/06 04:04:18;;;;;;;27.65;14.48;;;4.10;99.90;;;-148.53;100.00;63986.66;5026187;28;20037;-85
2024/03/06 04:06:45;;;;;;;23.13;14.20;;;4.10;99.90;;;-148.53;100.00;63986.66;5023235;28;20519;-85
2024/03/06 04:09:11;;;;;;;25.35;14.27;;;4.10;99.90;;;-148.53;100.00;63986.66;5027912;28;20045;-86
2024/03/06 04:11:38;;;;;;;27.13;14.50;;;4.10;99.90;;;-148.53;100.00;63986.66;5026443;28;20056;-86
2024/03/06 04:14:07;;;;;;;28.17;14.57;;;4.00;99.90;;;-148.53;100.00;63986.66;5034199;28;20769;-86
2024/03/06 04:16:34;;;;;;;28.92;15.90;;;4.10;99.90;;;-148.53;100.00;63986.66;5025006;28;20034;-86
2024/03/06 04:19:00;;;;;;;24.27;14.65;;;4.00;99.90;;;-148.53;100.00;63986.66;5029417;28;20410;-86
2024/03/06 04:21:26;;;;;;;29.13;15.00;;;4.00;99.90;;;-148.53;100.00;63986.66;5038693;28;20064;-85
2024/03/06 04:23:52;;;;;;;25.73;14.98;;;4.00;99.90;;;-148.53;100.00;63986.66;5053359;28;20125;-85
2024/03/06 04:26:17;;;;;;;26.48;14.95;;;4.00;99.90;;;-148.53;100.00;63986.66;5044218;28;20038;-85
2024/03/06 04:28:44;;;;;;;28.10;14.90;;;4.00;99.90;;;-148.53;100.00;63986.66;5020532;28;20029;-86
2024/03/06 04:31:09;;;;;;;26.08;15.05;;;4.00;99.90;;;-148.53;100.00;63986.66;5036784;28;20034;-86
2024/03/06 04:33:36;;;;;;;26.60;15.18;;;4.00;99.90;;;-148.53;100.00;63986.66;5024361;28;20029;-86
2024/03/06 04:36:05;;;;;;;26.75;14.85;;;4.00;99.90;;;-148.53;100.00;63986.66;5027830;28;20087;-86
2024/03/06 04:38:31;;;;;;;28.50;15.38;;;4.00;99.90;;;-148.53;100.00;63986.66;5024862;28;20029;-86
2024/03/06 04:40:57;;;;;;;27.20;15.85;;;4.10;99.90;;;-148.53;100.00;63986.66;5029416;28;20044;-86
2024/03/06 04:43:23;;;;;;;25.95;15.85;;;4.00;99.90;;;-148.53;100.00;63986.66;5042174;28;20116;-85
2024/03/06 04:45:49;;;;;;;26.98;16.20;;;4.00;99.90;;;-148.53;100.00;63986.66;5035995;28;20533;-86
2024/03/06 04:48:15;;;;;;;22.42;14.40;;;4.00;99.90;;;-148.53;100.00;63986.66;5004744;28;20041;-84
2024/03/06 04:50:41;;;;;;;30.35;15.48;;;4.00;99.90;;;-148.53;100.00;63986.66;5036528;28;20476;-85
2024/03/06 04:53:07;;;;;;;28.50;14.93;;;4.10;99.90;;;-148.53;100.00;63986.66;5031019;28;20056;-85
2024/03/06 04:55:32;;;;;;;25.50;15.52;;;4.10;99.90;;;-148.53;100.00;63986.66;5022526;28;20048;-84
2024/03/06 04:57:58;;;;;;;24.65;14.93;;;4.10;99.90;;;-148.53;100.00;63986.66;5043895;28;20405;-86
2024/03/06 05:00:24;;;;;;;29.05;16.13;;;4.10;99.90;;;-148.53;100.00;63986.66;5025628;28;20077;-85
2024/03/06 05:02:50;;;;;;;25.75;14.88;;;4.10;99.90;;;-148.53;100.00;63986.66;5016552;28;20025;-85
2024/03/06 05:05:15;;;;;;;27.73;15.73;;;4.00;99.90;;;-148.53;100.00;63986.66;5036558;28;20156;-84
2024/03/06 05:07:41;;;;;;;31.70;16.05;;;4.00;99.90;;;-148.53;100.00;63986.66;5039146;28;20053;-85
2024/03/06 05:10:08;;;;;;;27.95;15.45;;;4.00;99.90;;;-148.53;100.00;63986.66;5041446;28;20045;-83
2024/03/06 05:12:34;;;;;;;28.42;16.10;;;4.00;99.90;;;-148.53;100.00;63986.66;5039107;28;20045;-84
2024/03/06 05:15:00;;;;;;;25.05;14.98;;;4.00;99.90;;;-148.53;100.00;63986.66;5040314;28;20059;-86
2024/03/06 05:17:26;;;;;;;28.00;15.35;;;4.00;99.90;;;-148.53;100.00;63986.66;5045184;28;20091;-85
2024/03/06 05:19:52;;;;;;;25.60;15.07;;;4.00;99.90;;;-148.53;100.00;63986.66;5026238;28;20037;-86
2024/03/06 05:22:18;;;;;;;26.23;15.18;;;4.00;99.90;;;-148.53;100.00;63986.66;5031375;28;20043;-87
2024/03/06 05:24:44;;;;;;;28.85;16.10;;;4.00;99.90;;;-148.53;100.00;63986.66;5035378;28;20030;-83
2024/03/06 05:27:13;;;;;;;29.70;15.77;;;4.00;99.90;;;-148.53;100.00;63986.66;5030480;28;20041;-83
2024/03/06 05:29:39;;;;;;;30.70;16.20;;;4.10;99.90;;;-148.53;100.00;63986.66;5030173;28;20059;-83
2024/03/06 05:32:08;;;;;;;26.63;15.43;;;4.10;99.90;;;-148.53;100.00;63986.66;5030977;28;20047;-83
2024/03/06 05:34:35;;;;;;;26.48;15.52;;;4.10;99.90;;;-148.53;100.00;63986.66;5030052;28;20556;-82
2024/03/06 05:37:03;;;;;;;26.50;15.45;;;4.10;99.90;;;-148.53;100.00;63986.66;5038034;28;20087;-83
2024/03/06 05:39:32;;;;;;;29.35;16.48;;;4.10;99.90;;;-148.53;100.00;63986.66;5028832;28;20045;-81
2024/03/06 05:42:03;;;;;;;27.80;15.93;;;4.10;99.90;;;-148.53;100.00;63986.66;5028602;28;20060;-82
2024/03/06 05:44:32;;;;;;;32.13;16.52;;;4.10;99.90;;;-148.53;100.00;63986.66;5038107;28;20041;-81
2024/03/06 05:47:02;;;;;;;25.25;15.45;;;4.10;99.90;;;-148.53;100.00;63986.66;5025122;28;20037;-81
2024/03/06 05:49:28;;;;;;;29.02;15.50;;;4.00;99.90;;;-148.53;100.00;63986.66;5022121;28;20398;-82
2024/03/06 05:51:55;;;;;;;29.55;16.23;;;4.10;99.90;;;-148.53;100.00;63986.66;5029856;28;20033;-82
2024/03/06 05:54:21;;;;;;;28.48;16.23;;;4.00;99.90;;;-148.53;100.00;63986.66;5026052;28;20048;-82
2024/03/06 05:56:51;;;;;;;26.90;15.73;;;4.00;99.90;;;-148.53;100.00;63986.66;5024085;28;20037;-80
2024/03/06 05:59:18;;;;;;;30.67;16.13;;;4.10;99.90;;;-148.53;100.00;63986.66;5027717;28;20088;-84
2024/03/06 06:01:44;;;;;;;26.90;16.25;;;4.00;99.90;;;-148.53;100.00;63986.66;5020089;28;20118;-82
2024/03/06 06:04:10;;;;;;;29.17;15.50;;;4.00;99.90;;;-148.53;100.00;63986.66;5035789;28;20117;-82
2024/03/06 06:06:37;;;;;;;29.42;16.15;;;4.00;99.90;;;-148.53;100.00;63986.66;5027165;28;20046;-82
2024/03/06 06:09:07;;;;;;;29.95;15.63;;;4.00;99.90;;;-148.53;100.00;63986.66;5024626;28;20398;-83
2024/03/06 06:11:33;;;;;;;30.20;16.20;;;4.00;99.90;;;-148.53;100.00;63986.66;5022020;28;20448;-81
2024/03/06 06:13:59;;;;;;;27.15;15.88;;;4.00;99.90;;;-148.53;100.00;63986.66;5019198;28;20077;-81
2024/03/06 06:16:25;;;;;;;27.92;15.85;;;4.10;99.90;;;-148.53;100.00;63986.66;5029072;28;20045;-81
2024/03/06 06:18:51;;;;;;;28.60;16.13;;;4.00;99.90;;;-148.53;100.00;63986.66;5021338;28;20088;-82
2024/03/06 06:21:16;;;;;;;28.70;16.23;;;4.00;99.90;;;-148.53;100.00;63986.66;5019229;28;20045;-86
2024/03/06 06:23:42;;;;;;;29.17;17.00;;;4.00;99.90;;;-148.53;100.00;63986.66;5024912;28;20037;-85
2024/03/06 06:26:10;;;;;;;28.10;16.50;;;4.00;99.90;;;-148.53;100.00;63986.66;5035939;28;20084;-81
2024/03/06 06:28:37;;;;;;;30.20;17.48;;;4.10;99.90;;;-148.53;100.00;63986.66;5028730;28;20049;-83
2024/03/06 06:31:04;;;;;;;29.63;16.67;;;4.10;99.90;;;-148.53;100.00;63986.66;5018031;28;20095;-85
2024/03/06 06:33:30;;;;;;;29.57;17.33;;;4.10;99.90;;;-148.53;100.00;63986.66;5020767;28;20393;-82
2024/03/06 06:35:56;;;;;;;29.80;17.10;;;4.20;99.90;;;-148.53;100.00;63986.66;5026452;28;20044;-82
2024/03/06 06:38:21;;;;;;;29.77;16.13;;;4.30;99.90;;;-148.53;100.00;63986.66;5027602;28;20038;-81
2024/03/06 06:40:47;;;;;;;27.85;16.58;;;4.20;99.90;;;-148.53;100.00;63986.66;5021632;28;20041;-83
2024/03/06 06:43:13;;;;;;;29.67;17.05;;;4.20;99.90;;;-148.53;100.00;63986.66;5019693;28;20038;-83
2024/03/06 06:45:40;;;;;;;29.52;15.52;;;4.20;99.90;;;-148.53;100.00;63986.66;5022866;28;20044;-81
2024/03/06 06:48:06;;;;;;;28.60;16.30;;;4.20;99.90;;;-148.53;100.00;63986.66;5013974;28;20393;-80
2024/03/06 06:50:33;;;;;;;27.95;16.50;;;4.30;99.90;;;-148.53;100.00;63986.66;5021270;28;20117;-82
2024/03/06 06:53:00;;;;;;;28.63;17.13;;;4.40;99.90;;;-148.53;100.00;63986.66;5023423;28;20034;-82
2024/03/06 06:55:26;;;;;;;29.63;16.45;;;4.30;99.90;;;-148.53;100.00;63986.66;5022398;28;20098;-79
2024/03/06 06:57:51;;;;;;;27.58;16.10;;;4.30;99.90;;;-148.53;100.00;63986.66;5022143;28;20060;-81
2024/03/06 07:00:18;;;;;;;28.73;16.65;;;4.30;99.90;;;-148.53;100.00;63986.66;5026062;28;20049;-82
2024/03/06 07:02:45;;;;;;;31.10;17.17;;;4.30;99.90;;;-148.53;100.00;63986.66;5021213;28;20033;-83
2024/03/06 07:05:11;;;;;;;30.08;16.73;;;4.30;99.90;;;-148.53;100.00;63986.66;5015995;28;20045;-83
2024/03/06 07:07:38;;;;;;;27.30;16.55;;;4.40;99.90;;;-148.53;100.00;63986.66;5015180;28;20617;-83
2024/03/06 07:10:05;;;;;;;28.10;16.05;;;4.40;99.90;;;-148.53;100.00;63986.66;5033536;28;20042;-83
2024/03/06 07:12:31;;;;;;;29.13;15.55;;;4.40;99.90;;;-148.53;100.00;63986.66;5037351;28;20030;-83
2024/03/06 07:14:59;;;;;;;27.48;15.75;;;4.40;99.90;;;-148.53;100.00;63986.66;5027966;28;20029;-82
2024/03/06 07:17:25;;;;;;;30.42;17.27;;;4.40;99.90;;;-148.53;100.00;63986.66;5023373;28;20519;-82
2024/03/06 07:19:52;;;;;;;30.73;17.27;;;4.40;99.90;;;-148.53;100.00;63986.66;5024524;28;20076;-82
2024/03/06 07:22:19;;;;;;;32.05;17.08;;;4.50;99.90;;;-148.53;100.00;63986.66;5042077;28;20915;-83
2024/03/06 07:24:45;;;;;;;29.10;16.45;;;4.50;99.90;;;-148.53;100.00;63986.66;5019736;28;20038;-83
2024/03/06 07:27:11;;;;;;;32.38;16.75;;;4.50;99.90;;;-148.53;100.00;63986.66;5013722;28;20088;-83
2024/03/06 07:29:37;;;;;;;34.60;17.63;;;4.60;99.90;;;-148.53;100.00;63986.66;5028373;28;20069;-82
2024/03/06 07:32:05;;;;;;;29.40;16.92;;;4.60;99.90;;;-148.53;100.00;63986.66;5029229;28;20073;-83
2024/03/06 07:34:31;;;;;;;29.60;16.38;;;4.60;99.90;;;-148.53;100.00;63986.66;5013305;28;20033;-84
2024/03/06 07:36:59;;;;;;;27.08;16.60;;;4.70;99.90;;;-148.53;100.00;63986.66;5026602;28;20034;-83
2024/03/06 07:39:25;;;;;;;31.45;16.58;;;4.80;99.90;;;-148.53;100.00;63986.66;5023754;28;20460;-81
2024/03/06 07:41:51;;;;;;;31.25;16.65;;;4.90;99.90;;;-148.53;100.00;63986.66;5025212;28;20053;-82
2024/03/06 07:44:17;;;;;;;29.38;16.75;;;5.00;99.90;;;-148.53;100.00;63986.66;5033686;28;20029;-82
2024/03/06 07:46:43;;;;;;;28.13;16.48;;;5.10;99.90;;;-148.53;100.00;63986.66;5025096;28;20107;-82
2024/03/06 07:49:09;;;;;;;28.67;16.85;;;5.10;99.90;;;-148.53;100.00;63986.66;5029305;28;20046;-82
2024/03/06 07:51:35;;;;;;;28.45;16.17;;;5.20;99.90;;;-148.53;100.00;63986.66;5023979;28;20052;-82
2024/03/06 07:54:03;;;;;;;28.83;16.10;;;5.20;99.90;;;-148.53;100.00;63986.66;5028573;28;20034;-82
2024/03/06 07:56:30;;;;;;;24.77;15.18;;;5.30;99.90;;;-148.53;100.00;63986.66;5017436;28;20049;-82
2024/03/06 07:58:57;;;;;;;25.88;15.75;;;5.40;99.90;;;-148.53;100.00;63986.66;5017280;28;20052;-82
2024/03/06 08:01:23;;;;;;;25.90;14.85;;;5.50;99.90;;;-148.53;100.00;63986.66;5039067;28;20513;-81
2024/03/06 08:03:49;;;;;;;26.33;15.38;;;5.60;99.90;;;-148.53;100.00;63986.66;5037952;28;20466;-82
2024/03/06 08:06:15;;;;;;;25.80;15.98;;;5.60;99.90;;;-148.53;100.00;63986.66;5018849;28;20049;-82
2024/03/06 08:08:43;;;;;;;27.88;15.70;;;5.70;99.90;;;-148.53;100.00;63986.66;5019698;28;20122;-82
2024/03/06 08:11:11;;;;;;;28.50;16.02;;;5.80;99.90;;;-148.53;100.00;63986.66;5017465;28;20033;-82
2024/03/06 08:13:37;;;;;;;27.10;15.48;;;5.90;99.90;;;-148.53;100.00;63986.66;5019636;28;20470;-83
2024/03/06 08:16:04;;;;;;;24.75;14.13;;;6.00;99.90;;;-148.53;100.00;63986.66;5031307;28;20489;-82
2024/03/06 08:18:30;;;;;;;26.42;15.75;;;6.00;99.90;;;-148.53;100.00;63986.66;5021047;28;20470;-82
2024/03/06 08:20:56;;;;;;;26.42;15.98;;;6.10;99.90;;;-148.53;100.00;63986.66;5035999;28;20134;-82
2024/03/06 08:23:23;;;;;;;26.08;15.40;;;6.20;99.90;;;-148.53;100.00;63986.66;5026992;28;20053;-83
2024/03/06 08:25:49;;;;;;;27.05;15.90;;;6.20;99.90;;;-148.53;100.00;63986.66;5028559;28;20044;-82
2024/03/06 08:28:15;;;;;;;24.45;15.70;;;6.30;99.90;;;-148.53;100.00;63986.66;5012804;28;20425;-82
2024/03/06 08:30:41;;;;;;;25.13;15.13;;;6.30;99.90;;;-148.53;100.00;63986.66;5024605;28;20060;-83
2024/03/06 08:33:07;;;;;;;26.45;15.65;;;6.30;99.90;;;-148.53;100.00;63986.66;5016380;28;20052;-82
2024/03/06 08:35:33;;;;;;;25.65;15.38;;;6.40;99.90;;;-148.53;100.00;63986.66;5040166;28;20505;-83
2024/03/06 08:38:00;;;;;;;25.13;15.82;;;6.40;99.90;;;-148.53;100.00;63986.66;5036429;28;20030;-82
2024/03/06 08:40:27;;;;;;;27.33;15.73;;;6.40;99.90;;;-148.53;100.00;63986.66;5034046;28;20034;-82
2024/03/06 08:42:54;;;;;;;25.20;15.40;;;6.50;99.90;;;-148.53;100.00;63986.66;5027062;28;20063;-82
2024/03/06 08:45:20;;;;;;;28.30;16.20;;;6.50;99.90;;;-148.53;100.00;63986.66;5027566;28;20033;-82
2024/03/06 08:47:48;;;;;;;27.63;16.80;;;6.70;99.90;;;-148.53;100.00;63986.66;5033690;28;20055;-82
2024/03/06 08:50:14;;;;;;;28.85;16.67;;;6.60;99.90;;;-148.53;100.00;63986.66;5022716;28;20042;-82
2024/03/06 08:52:41;;;;;;;29.92;16.40;;;6.70;99.90;;;-148.53;100.00;63986.66;5037469;28;20045;-82
2024/03/06 08:55:07;;;;;;;28.08;16.20;;;6.70;99.90;;;-148.53;100.00;63986.66;5020989;28;20122;-82
2024/03/06 08:57:35;;;;;;;29.42;16.90;;;6.80;99.90;;;-148.53;100.00;63986.66;5043060;28;20069;-81
2024/03/06 09:00:01;;;;;;;30.15;16.63;;;6.90;99.90;;;-148.53;100.00;63986.66;5023683;28;20037;-81
2024/03/06 09:02:27;;;;;;;29.42;17.33;;;7.00;99.90;;;-148.53;100.00;63986.66;5018675;28;20037;-81
2024/03/06 09:04:53;;;;;;;29.50;16.30;;;7.00;99.90;;;-148.53;100.00;63986.66;5032501;28;20044;-82
2024/03/06 09:07:23;;;;;;;33.45;17.25;;;7.00;99.90;;;-148.53;100.00;63986.66;5028318;28;20049;-81
2024/03/06 09:09:50;;;;;;;26.52;15.88;;;7.10;99.90;;;-148.53;100.00;63986.66;5024605;28;20126;-82
2024/03/06 09:12:16;;;;;;;29.58;17.20;;;7.10;99.90;;;-148.53;100.00;63986.66;5024791;28;20117;-82
2024/03/06 09:14:42;;;;;;;25.50;16.27;;;7.20;99.90;;;-148.53;100.00;63986.66;5021721;28;20133;-81
2024/03/06 09:17:10;;;;;;;26.77;16.50;;;7.40;99.90;;;-148.53;100.00;63986.66;5024164;28;20040;-82
2024/03/06 09:19:36;;;;;;;31.10;16.40;;;7.50;99.90;;;-148.53;100.00;63986.66;5021201;28;20065;-81
2024/03/06 09:22:02;;;;;;;30.58;16.88;;;7.70;99.90;;;-148.53;100.00;63986.66;5019344;28;20482;-81
2024/03/06 09:24:28;;;;;;;26.13;15.57;;;7.70;99.90;;;-148.53;100.00;63986.66;5020143;28;20378;-81
2024/03/06 09:26:54;;;;;;;27.30;16.67;;;7.90;99.90;;;-148.53;100.00;63986.66;5023638;28;20040;-82
2024/03/06 09:29:21;;;;;;;28.70;16.85;;;7.90;99.90;;;-148.53;100.00;63986.66;5035424;28;20034;-82
2024/03/06 09:31:48;;;;;;;28.98;17.20;;;8.00;99.90;;;-148.53;100.00;63986.66;5015777;28;20030;-81
2024/03/06 09:34:14;;;;;;;28.50;17.52;;;8.10;99.90;;;-148.53;100.00;63986.66;5031094;28;20052;-82
2024/03/06 09:36:48;;;;;;;26.27;16.83;;;8.20;99.90;;;-148.53;100.00;63986.66;5015464;28;20048;-82
2024/03/06 09:39:22;;;;;;;28.30;18.17;;;7.90;99.90;;;-148.53;100.00;63986.66;5025181;28;20133;-81
2024/03/06 09:41:51;;;;;;;26.77;17.38;;;7.80;99.90;;;-148.53;100.00;63986.66;5019355;28;20496;-82
2024/03/06 09:44:18;;;;;;;31.90;18.50;;;7.60;99.90;;;-148.53;100.00;63986.66;5029939;28;20171;-82
2024/03/06 09:46:49;;;;;;;33.70;19.13;;;7.50;99.90;;;-148.53;100.00;63986.66;5031378;28;20052;-82
2024/03/06 09:49:17;;;;;;;31.90;19.02;;;7.30;99.90;;;-148.53;100.00;63986.66;5031710;28;20057;-82
2024/03/06 09:51:52;;;;;;;29.13;18.23;;;7.30;99.90;;;-148.53;100.00;63986.66;5025255;28;20038;-81